createdAt,value
2023-04-26T00:00:47.826Z,80.93
2023-04-26T00:05:47.789Z,80.93
2023-04-26T00:10:47.695Z,81.03
2023-04-26T00:15:47.625Z,81.24
2023-04-26T00:20:47.574Z,81.14
2023-04-26T00:25:47.508Z,80.93
2023-04-26T00:30:47.441Z,81.14
2023-04-26T00:35:47.402Z,80.62
2023-04-26T00:40:47.282Z,80.62
2023-04-26T00:45:47.254Z,80.93
2023-04-26T00:50:47.157Z,81.03
2023-04-26T00:55:47.147Z,80.72
2023-04-26T01:00:47.050Z,80.10
2023-04-26T01:05:46.963Z,79.69
2023-04-26T01:10:46.897Z,79.58
2023-04-26T01:15:46.827Z,78.76
2023-04-26T01:20:46.764Z,78.76
2023-04-26T01:25:46.715Z,78.97
2023-04-26T01:30:46.689Z,78.80
2023-04-26T01:35:46.563Z,79.15
2023-04-26T01:40:46.492Z,79.49
2023-04-26T01:45:46.424Z,80.01
2023-04-26T01:50:46.361Z,81.18
2023-04-26T01:55:46.289Z,81.73
2023-04-26T02:00:46.222Z,82.70
2023-04-26T02:05:46.158Z,83.57
2023-04-26T02:10:46.107Z,84.44
2023-04-26T02:15:46.058Z,85.06
2023-04-26T02:20:45.991Z,85.27
2023-04-26T02:25:45.897Z,86.24
2023-04-26T02:30:45.827Z,86.70
2023-04-26T02:35:45.779Z,87.01
2023-04-26T02:40:45.720Z,87.01
2023-04-26T02:45:45.636Z,86.80
2023-04-26T02:50:45.566Z,86.63
2023-04-26T02:55:45.505Z,86.43
2023-04-26T03:00:45.480Z,86.74
2023-04-26T03:05:45.372Z,86.74
2023-04-26T03:10:45.317Z,87.09
2023-04-26T03:15:45.247Z,87.50
2023-04-26T03:20:45.191Z,87.29
2023-04-26T03:25:45.113Z,87.29
2023-04-26T03:30:45.057Z,87.23
2023-04-26T03:35:44.986Z,87.23
2023-04-26T03:40:44.926Z,87.48
2023-04-26T03:45:44.912Z,87.48
2023-04-26T03:50:44.800Z,87.68
2023-04-26T03:55:44.722Z,87.68
2023-04-26T04:00:44.658Z,87.89
2023-04-26T04:05:44.614Z,87.89
2023-04-26T04:10:44.525Z,88.04
2023-04-26T04:15:44.466Z,88.00
2023-04-26T04:20:44.404Z,86.88
2023-04-26T04:25:44.324Z,85.24
2023-04-26T04:30:44.266Z,83.30
2023-04-26T04:35:44.195Z,80.60
2023-04-26T04:40:44.138Z,78.46
2023-04-26T04:45:44.063Z,76.28
2023-04-26T04:50:44.025Z,73.80
2023-04-26T04:55:43.940Z,72.36
2023-04-26T05:00:43.899Z,70.00
2023-04-26T05:05:43.801Z,68.40
2023-04-26T05:10:43.749Z,67.59
2023-04-26T05:15:43.686Z,66.40
2023-04-26T05:20:43.623Z,64.59
2023-04-26T05:25:43.549Z,64.36
2023-04-26T05:30:43.486Z,62.76
2023-04-26T05:35:43.414Z,61.51
2023-04-26T05:40:43.362Z,60.26
2023-04-26T05:45:43.311Z,60.10
2023-04-26T05:50:43.233Z,58.61
2023-04-26T05:55:43.157Z,56.01
2023-04-26T06:00:43.090Z,55.32
2023-04-26T06:05:43.086Z,53.01
2023-04-26T06:10:42.962Z,50.58
2023-04-26T06:15:42.889Z,50.96
2023-04-26T06:20:42.844Z,49.15
2023-04-26T06:25:42.753Z,47.66
2023-04-26T06:30:42.728Z,46.27
2023-04-26T06:35:42.644Z,45.92
2023-04-26T06:40:42.568Z,44.69
2023-04-26T06:45:43.618Z,43.07
2023-04-26T06:50:42.461Z,43.58
2023-04-26T06:55:42.368Z,43.58
2023-04-26T07:00:42.308Z,41.10
2023-04-26T07:05:42.275Z,40.16
2023-04-26T07:10:42.191Z,41.04
2023-04-26T07:15:42.195Z,38.32
2023-04-26T07:20:42.096Z,37.06
2023-04-26T07:25:41.981Z,35.91
2023-04-26T07:30:41.915Z,34.49
2023-04-26T07:35:41.837Z,35.46
2023-04-26T07:40:41.778Z,35.02
2023-04-26T07:45:41.733Z,34.11
2023-04-26T07:50:41.683Z,33.69
2023-04-26T07:55:41.579Z,32.99
2023-04-26T08:00:41.518Z,32.67
2023-04-26T08:05:41.688Z,32.08
2023-04-26T08:10:41.381Z,32.29
2023-04-26T08:15:41.325Z,32.49
2023-04-26T08:20:41.266Z,32.64
2023-04-26T08:25:41.182Z,32.15
2023-04-26T08:30:41.153Z,31.49
2023-04-26T08:35:41.100Z,31.64
2023-04-26T08:40:41.025Z,30.32
2023-04-26T08:45:40.924Z,28.71
2023-04-26T08:50:40.886Z,29.52
2023-04-26T08:55:40.806Z,30.46
2023-04-26T09:00:40.742Z,28.12
2023-04-26T09:05:40.676Z,30.09
2023-04-26T09:10:40.611Z,32.46
2023-04-26T09:15:40.577Z,34.25
2023-04-26T09:20:40.488Z,34.53
2023-04-26T09:25:40.406Z,32.35
2023-04-26T09:30:40.350Z,31.78
2023-04-26T09:35:40.277Z,33.28
2023-04-26T09:40:40.218Z,35.12
2023-04-26T09:45:40.144Z,34.99
2023-04-26T09:50:40.093Z,35.24
2023-04-26T09:55:40.014Z,38.81
2023-04-26T10:00:39.995Z,41.80
2023-04-26T10:05:39.885Z,37.76
2023-04-26T10:10:39.826Z,33.83
2023-04-26T10:15:39.759Z,36.43
2023-04-26T10:20:39.696Z,37.73
2023-04-26T10:25:39.722Z,36.12
2023-04-26T10:30:39.768Z,38.87
2023-04-26T10:35:39.694Z,41.21
2023-04-26T10:40:39.844Z,39.08
2023-04-26T10:45:39.899Z,38.11
2023-04-26T10:50:39.856Z,37.98
2023-04-26T10:55:39.894Z,35.30
2023-04-26T11:00:39.182Z,35.83
2023-04-26T11:05:39.101Z,39.23
2023-04-26T11:10:39.059Z,39.49
2023-04-26T11:15:39.049Z,45.67
2023-04-26T11:20:38.922Z,47.36
2023-04-26T11:25:38.841Z,44.05
2023-04-26T11:30:38.784Z,40.87
2023-04-26T11:35:38.712Z,40.77
2023-04-26T11:40:38.675Z,41.88
2023-04-26T11:45:38.636Z,42.47
2023-04-26T11:50:38.517Z,40.10
2023-04-26T11:55:38.458Z,41.33
2023-04-26T12:00:38.409Z,38.70
2023-04-26T12:05:38.522Z,39.39
2023-04-26T12:10:38.249Z,39.49
2023-04-26T12:15:38.178Z,38.82
2023-04-26T12:20:38.115Z,41.00
2023-04-26T12:25:38.055Z,42.85
2023-04-26T12:30:37.989Z,43.87
2023-04-26T12:35:37.908Z,42.41
2023-04-26T12:40:37.858Z,40.54
2023-04-26T12:45:37.776Z,41.58
2023-04-26T12:50:37.715Z,41.69
2023-04-26T12:55:37.648Z,42.85
2023-04-26T13:00:37.586Z,43.99
2023-04-26T13:05:37.534Z,43.30
2023-04-26T13:10:37.463Z,43.60
2023-04-26T13:15:37.418Z,43.46
2023-04-26T13:20:37.330Z,44.37
2023-04-26T13:25:37.263Z,42.77
2023-04-26T13:30:37.200Z,42.85
2023-04-26T13:35:37.129Z,42.87
2023-04-26T13:40:37.069Z,42.81
2023-04-26T13:45:39.968Z,43.44
2023-04-26T13:50:36.951Z,44.46
2023-04-26T13:55:36.869Z,43.95
2023-04-26T14:00:36.796Z,43.40
2023-04-26T14:05:36.755Z,42.77
2023-04-26T14:10:36.663Z,43.26
2023-04-26T14:15:36.603Z,43.16
2023-04-26T14:20:36.541Z,42.32
2023-04-26T14:25:36.480Z,43.54
2023-04-26T14:30:36.419Z,43.04
2023-04-26T14:35:36.353Z,42.23
2023-04-26T14:40:36.293Z,44.07
2023-04-26T14:45:43.963Z,44.90
2023-04-26T14:50:36.153Z,43.81
2023-04-26T14:55:36.097Z,44.95
2023-04-26T15:00:36.027Z,46.29
2023-04-26T15:05:35.971Z,46.52
2023-04-26T15:10:35.924Z,44.91
2023-04-26T15:15:35.842Z,44.81
2023-04-26T15:20:35.766Z,45.19
2023-04-26T15:25:35.703Z,45.62
2023-04-26T15:30:35.635Z,46.54
2023-04-26T15:35:35.573Z,45.83
2023-04-26T15:40:38.077Z,46.44
2023-04-26T15:45:35.443Z,46.85
2023-04-26T15:50:35.408Z,46.74
2023-04-26T15:55:35.470Z,45.75
2023-04-26T16:00:35.236Z,46.25
2023-04-26T16:05:35.180Z,46.56
2023-04-26T16:10:36.333Z,46.36
2023-04-26T16:15:35.048Z,46.69
2023-04-26T16:20:34.974Z,46.78
2023-04-26T16:25:34.915Z,47.19
2023-04-26T16:30:34.844Z,48.24
2023-04-26T16:35:34.788Z,48.44
2023-04-26T16:40:34.713Z,48.74
2023-04-26T16:45:34.652Z,48.87
2023-04-26T16:50:34.582Z,49.38
2023-04-26T16:55:34.521Z,48.66
2023-04-26T17:00:34.449Z,47.97
2023-04-26T17:05:34.388Z,48.18
2023-04-26T17:10:34.313Z,47.97
2023-04-26T17:15:34.256Z,49.53
2023-04-26T17:20:34.183Z,49.94
2023-04-26T17:25:34.133Z,50.47
2023-04-26T17:30:34.049Z,50.57
2023-04-26T17:35:33.992Z,51.19
2023-04-26T17:40:33.917Z,51.83
2023-04-26T17:45:33.883Z,53.05
2023-04-26T17:50:33.805Z,53.90
2023-04-26T17:55:33.734Z,53.69
2023-04-26T18:00:33.830Z,54.84
2023-04-26T18:05:33.861Z,55.76
2023-04-26T18:10:33.534Z,56.61
2023-04-26T18:15:33.461Z,56.73
2023-04-26T18:20:33.420Z,57.25
2023-04-26T18:25:33.335Z,56.97
2023-04-26T18:30:33.275Z,57.28
2023-04-26T18:35:33.201Z,57.61
2023-04-26T18:40:33.148Z,57.20
2023-04-26T18:45:33.065Z,58.05
2023-04-26T18:50:33.013Z,59.95
2023-04-26T18:55:32.930Z,61.00
2023-04-26T19:00:32.872Z,62.47
2023-04-26T19:05:32.803Z,62.91
2023-04-26T19:10:32.746Z,63.14
2023-04-26T19:15:32.685Z,63.79
2023-04-26T19:20:32.613Z,64.13
2023-04-26T19:25:32.544Z,63.13
2023-04-26T19:30:32.496Z,63.44
2023-04-26T19:35:32.415Z,63.03
2023-04-26T19:40:32.353Z,63.06
2023-04-26T19:45:32.298Z,65.46
2023-04-26T19:50:32.228Z,67.13
2023-04-26T19:55:32.152Z,67.86
2023-04-26T20:00:32.228Z,68.71
2023-04-26T20:05:32.024Z,69.13
2023-04-26T20:10:31.969Z,69.34
2023-04-26T20:15:33.750Z,70.81
2023-04-26T20:20:31.841Z,71.53
2023-04-26T20:25:31.768Z,72.08
2023-04-26T20:30:31.699Z,72.39
2023-04-26T20:35:31.624Z,72.39
2023-04-26T20:40:31.566Z,73.15
2023-04-26T20:45:31.490Z,73.18
2023-04-26T20:50:31.443Z,73.49
2023-04-26T20:55:31.365Z,73.49
2023-04-26T21:00:31.302Z,73.70
2023-04-26T21:05:31.239Z,74.35
2023-04-26T21:10:31.199Z,74.60
2023-04-26T21:15:31.102Z,74.70
2023-04-26T21:20:31.033Z,74.91
2023-04-26T21:25:30.967Z,75.98
2023-04-26T21:30:30.904Z,76.81
2023-04-26T21:35:30.830Z,76.70
2023-04-26T21:40:30.769Z,76.84
2023-04-26T21:45:30.692Z,76.53
2023-04-26T21:50:30.657Z,76.63
2023-04-26T21:55:30.562Z,76.42
2023-04-26T22:00:30.512Z,76.56
2023-04-26T22:05:30.427Z,76.22
2023-04-26T22:10:30.468Z,75.91
2023-04-26T22:15:30.302Z,76.42
2023-04-26T22:20:30.240Z,76.77
2023-04-26T22:25:30.170Z,76.46
2023-04-26T22:30:30.118Z,76.77
2023-04-26T22:35:30.088Z,77.02
2023-04-26T22:40:29.979Z,77.43
2023-04-26T22:45:29.919Z,77.43
2023-04-26T22:50:29.852Z,77.33
2023-04-26T22:55:29.778Z,77.33
2023-04-26T23:00:29.724Z,77.47
2023-04-26T23:05:29.649Z,77.67
2023-04-26T23:10:29.596Z,77.67
2023-04-26T23:15:29.520Z,77.36
2023-04-26T23:20:29.465Z,77.57
2023-04-26T23:25:29.400Z,78.09
2023-04-26T23:30:29.334Z,78.33
2023-04-26T23:35:29.260Z,78.33
2023-04-26T23:40:29.204Z,78.44
2023-04-26T23:45:29.132Z,78.85
2023-04-26T23:50:29.073Z,78.85
2023-04-26T23:55:29.006Z,79.58
